ADDS METAR Data INFO
IDs: Format: Raw Decoded Include TAF

Data at: 0219 UTC 18 Jan 2018

KMRN 180155Z AUTO 29003KT 10SM CLR M13/M14 A3032 RMK AO2 T11281143
KMRN 180135Z AUTO 00000KT 10SM CLR M13/M14 A3032 RMK AO2 T11261145
KMRN 180115Z AUTO 00000KT 10SM CLR M11/M14 A3032 RMK AO2 T11121142
KMRN 180055Z AUTO 00000KT 10SM CLR M09/M15 A3032 RMK AO2 T10911151
KMRN 180035Z AUTO 34004KT 10SM CLR M06/M14 A3031 RMK AO2 T10631142
KMRN 180015Z AUTO 35006KT 10SM SCT090 M06/M14 A3031 RMK AO2 T10571140
KMRN 172355Z AUTO 33005KT 10SM BKN090 M05/M13 A3030 RMK AO2 T10551135 11022 21055
KMRN 172335Z AUTO 35006G14KT 10SM BKN090 M05/M13 A3030 RMK AO2 T10501134
KMRN 172315Z AUTO 35005KT 10SM SCT075 OVC090 M05/M13 A3029 RMK AO2 T10491128
KMRN 172255Z AUTO 33005KT 10SM SCT060 SCT075 BKN090 M05/M12 A3029 RMK AO2 T10461124
KMRN 172235Z AUTO 35005KT 10SM OVC070 M04/M12 A3028 RMK AO2 T10431120
KMRN 172215Z AUTO 35004KT 10SM OVC070 M04/M12 A3028 RMK AO2 T10411116
KMRN 172155Z AUTO 35004KT 10SM SCT040 SCT060 OVC070 M04/M11 A3027 RMK AO2 T10401110
KMRN 172135Z AUTO 36004KT 10SM SCT033 OVC040 M04/M10 A3027 RMK AO2 T10371101
KMRN 172115Z AUTO 34006KT 10SM BKN028 OVC036 M04/M10 A3027 RMK AO2 T10381097
KMRN 172055Z AUTO 34004KT 10SM OVC024 M04/M09 A3026 RMK AO2 T10381094
KMRN 172035Z AUTO 34006KT 10SM SCT012 OVC022 M04/M09 A3026 RMK AO2 T10361088
KMRN 172015Z AUTO 32004KT 3SM -SN SCT006 OVC012 M04/M07 A3026 RMK AO2 T10381075
KMRN 171955Z AUTO 35005KT 1 1/4SM -SN BKN008 BKN015 OVC031 M04/M07 A3026 RMK AO2 T10391066
KMRN 171935Z AUTO 34006KT 2 1/2SM -SN OVC029 M03/M06 A3027 RMK AO2 T10351065
KMRN 171915Z AUTO 33006KT 5SM -SN OVC025 M03/M06 A3026 RMK AO2 T10301065
KMRN 171855Z AUTO 34006KT 3SM -SN BKN021 OVC038 M03/M06 A3026 RMK AO2 T10261063
KMRN 171835Z AUTO 35005KT 7SM -SN SCT021 BKN032 OVC038 M02/M07 A3026 RMK AO2 T10231067
KMRN 171815Z AUTO 33006KT 10SM BKN024 BKN031 OVC038 M02/M06 A3026 RMK AO2 T10231061
KMRN 171755Z AUTO 34006KT 10SM OVC038 M02/M05 A3026 RMK AO2 P0001 60016 T10231048 11015 21024
KMRN 171735Z AUTO 36005KT 2 1/2SM -SN SCT007 SCT014 OVC036 M02/M04 A3026 RMK AO2 VIS 2V3 P0001 T10221037
KMRN 171715Z AUTO 35005KT 3/4SM -SN OVC007 M02/M03 A3027 RMK AO2 P0001 T10221035
KMRN 171655Z AUTO 34004KT 1/2SM -SN BKN007 M02/M03 A3028 RMK AO2 P0003 T10211032
KMRN 171635Z AUTO 34004KT 1/2SM SN OVC007 M02/M03 A3028 RMK AO2 P0002 T10201029
KMRN 171615Z AUTO 33004KT 3/4SM -SN BKN007 OVC012 M02/M03 A3028 RMK AO2 T10211030
KMRN 171555Z AUTO 34003KT 3/4SM -SN VV005 M02/M03 A3028 RMK AO2 P0003 T10201029
KMRN 171535Z AUTO 34005KT 3/4SM -SN VV005 M02/M02 A3028 RMK AO2 P0002 T10181025
KMRN 171515Z AUTO 36004KT 3/4SM -SN BKN005 BKN009 M02/M02 A3027 RMK AO2 P0001 T10191025
KMRN 171455Z AUTO 34005KT 1/2SM SN OVC005 M02/M02 A3027 RMK AO2 P0003 60008 T10181024
KMRN 171435Z AUTO 32003KT 3/4SM -SN OVC007 M02/M02 A3027 RMK AO2 P0002 T10181025
KMRN 171415Z AUTO 00000KT 3/4SM -SN OVC007 M02/M02 A3026 RMK AO2 P0001 T10181025
KMRN 171355Z AUTO 35003KT 1SM -SN OVC007 M02/M02 A3026 RMK AO2 P0003 T10171025
KMRN 171335Z AUTO 36003KT 1SM -SN OVC007 M02/M03 A3026 RMK AO2 P0002 T10181027
KMRN 171315Z AUTO 35003KT 2SM -SN BKN007 BKN010 OVC027 M02/M03 A3026 RMK AO2 P0001 T10181026
KMRN 171255Z AUTO 34004KT 1 3/4SM -SN BKN009 BKN014 OVC027 M02/M02 A3026 RMK AO2 P0002 T10181025
KMRN 171235Z AUTO 33003KT 1 3/4SM -SN OVC011 M02/M02 A3026 RMK AO2 P0001 T10161023
KMRN 171215Z AUTO 36003KT 1 3/4SM -SN OVC009 M02/M02 A3027 RMK AO2 T10161025
KMRN 171155Z AUTO 34003KT 2SM -SN OVC009 M01/M02 A3027 RMK AO2 P0002 60006 70006 T10151022 10027 21015
KMRN 171135Z AUTO 34006KT 1 1/2SM -SN OVC007 M01/M02 A3027 RMK AO2 P0002 T10151020
KMRN 171115Z AUTO 34006KT 1 1/2SM -SN BKN007 M01/M02 A3027 RMK AO2 P0001 T10121018
KMRN 171055Z AUTO 34005KT 1 1/2SM -SN BKN007 OVC023 M01/M02 A3027 RMK AO2 P0002 T10121018
KMRN 171035Z AUTO 34006KT 2SM -SN M01/M01 A3026 RMK AO2 SKY OBSCURED P0001 T10101015
KMRN 171015Z AUTO 34007KT 1 1/2SM -SN BKN005 M01/M01 A3027 RMK AO2 P0001 T10081013
KMRN 170955Z AUTO 34005KT 1SM SN OVC005 M01/M01 A3026 RMK AO2 P0002 T10071013
KMRN 170935Z AUTO 34005KT 1 1/4SM SN OVC007 00/M01 A3027 RMK AO2 P0001 T10051012
KMRN 170915Z AUTO 34005KT 1 3/4SM -SN BKN010 OVC021 00/M01 A3027 RMK AO2 T10021011
KMRN 170855Z AUTO 35005KT 2SM -SN SCT010 BKN014 OVC023 00/M01 A3027 RMK AO2 T00001012
KMRN 170835Z AUTO 32005KT 4SM -SN OVC026 00/M01 A3026 RMK AO2 T00031014
KMRN 170815Z AUTO 32004KT 5SM -SN OVC028 01/M01 A3026 RMK AO2 T00061013
KMRN 170755Z AUTO 35003KT 3SM -SN OVC030 01/M01 A3026 RMK AO2 T00081015
KMRN 170735Z AUTO 35005KT 5SM -SN OVC030 02/M02 A3027 RMK AO2 T00161022
KMRN 170715Z AUTO 33004KT 10SM OVC030 02/M03 A3027 RMK AO2 T00211026
KMRN 170655Z AUTO 33006KT 10SM SCT026 OVC032 02/M03 A3027 RMK AO2 T00231027
KMRN 170635Z AUTO 34004KT 10SM OVC034 03/M03 A3026 RMK AO2 T00251029
KMRN 170615Z AUTO 34003KT 10SM OVC034 03/M03 A3026 RMK AO2 T00261028
KMRN 170555Z AUTO 33005KT 10SM OVC034 03/M03 A3027 RMK AO2 T00271027 10027 21004 400721086
KMRN 170535Z AUTO 34005KT 10SM OVC036 03/M03 A3027 RMK AO2 T00271026
KMRN 170515Z AUTO 35004KT 10SM OVC036 03/M03 A3027 RMK AO2 T00261026
KMRN 170455Z AUTO 36004KT 10SM BKN038 BKN050 OVC075 02/M03 A3027 RMK AO2 T00241030
KMRN 170435Z AUTO 36004KT 10SM BKN037 BKN050 OVC075 02/M03 A3028 RMK AO2 T00201034
KMRN 170415Z AUTO 35004KT 10SM OVC035 02/M03 A3029 RMK AO2 T00191030
KMRN 170355Z AUTO 35003KT 10SM OVC037 02/M03 A3028 RMK AO2 T00181032
KMRN 170335Z AUTO 00000KT 10SM OVC041 02/M03 A3029 RMK AO2 T00191032
KMRN 170315Z AUTO 35003KT 10SM BKN043 02/M03 A3030 RMK AO2 T00201031
KMRN 170255Z AUTO 35003KT 10SM BKN043 BKN100 BKN120 02/M03 A3030 RMK AO2 T00151027
KMRN 170235Z AUTO 36003KT 10SM SCT043 SCT100 BKN120 02/M03 A3030 RMK AO2 T00151028
KMRN 170215Z AUTO 00000KT 10SM BKN120 02/M03 A3030 RMK AO2 T00181027
KMRN 170155Z AUTO 35004KT 10SM SCT120 01/M03 A3029 RMK AO2 T00061027
KMRN 170135Z AUTO 00000KT 10SM SCT110 00/M03 A3030 RMK AO2 T10041028
KMRN 170115Z AUTO 00000KT 10SM CLR 00/M02 A3030 RMK AO2 T00001023
KMRN 170055Z AUTO 00000KT 10SM CLR 00/M03 A3030 RMK AO2 T00001033
KMRN 170035Z AUTO 00000KT 10SM CLR 00/M03 A3030 RMK AO2 T00031026
KMRN 170015Z AUTO 00000KT 10SM SCT100 01/M03 A3030 RMK AO2 T00071030
KMRN 162355Z AUTO 05003KT 10SM SCT100 01/M03 A3030 RMK AO2 T00111028 10072 20010
KMRN 162335Z AUTO 00000KT 10SM SCT110 02/M02 A3031 RMK AO2 T00201025
KMRN 162315Z AUTO 00000KT 10SM BKN100 03/M02 A3030 RMK AO2 T00251016
KMRN 162255Z AUTO 00000KT 10SM BKN090 OVC110 03/M02 A3031 RMK AO2 T00341018
KMRN 162235Z AUTO 00000KT 10SM OVC100 05/M03 A3032 RMK AO2 T00451028
KMRN 162215Z AUTO 00000KT 10SM OVC100 06/M02 A3032 RMK AO2 T00561023
KMRN 162155Z AUTO 00000KT 10SM OVC100 07/M04 A3032 RMK AO2 T00651042
KMRN 162135Z AUTO 00000KT 10SM BKN100 07/M05 A3033 RMK AO2 T00661046
KMRN 162115Z AUTO 00000KT 10SM CLR 07/M05 A3033 RMK AO2 T00711047
KMRN 162055Z AUTO 00000KT 10SM CLR 07/M05 A3033 RMK AO2 T00721051
KMRN 162035Z AUTO 00000KT 10SM CLR 07/M06 A3033 RMK AO2 T00671056
KMRN 162015Z AUTO 00000KT 10SM CLR 07/M06 A3033 RMK AO2 T00661059
KMRN 161955Z AUTO 04003KT 10SM CLR 06/M06 A3034 RMK AO2 T00631057
KMRN 161935Z AUTO 00000KT 10SM CLR 06/M06 A3034 RMK AO2 T00601060
KMRN 161915Z AUTO 00000KT 10SM CLR 06/M06 A3035 RMK AO2 T00611058
KMRN 161855Z AUTO 31003KT 10SM CLR 06/M06 A3035 RMK AO2 T00581056
KMRN 161815Z AUTO 00000KT 10SM CLR 05/M06 A3037 RMK AO2 T00521059
KMRN 161755Z AUTO 00000KT 10SM CLR 05/M06 A3038 RMK AO2 T00501064 10050 21086
KMRN 161735Z AUTO 12003KT 10SM CLR 05/M06 A3039 RMK AO2 T00481065
KMRN 161715Z AUTO 00000KT 10SM CLR 04/M07 A3040 RMK AO2 T00401070
KMRN 161655Z AUTO 00000KT 10SM CLR 04/M07 A3041 RMK AO2 T00351071
KMRN 161635Z AUTO 12003KT 10SM CLR 04/M07 A3043 RMK AO2 T00361070
KMRN 161615Z AUTO 00000KT 10SM CLR 03/M07 A3044 RMK AO2 T00321070
KMRN 161555Z AUTO 00000KT 10SM CLR 03/M07 A3045 RMK AO2 T00261068
KMRN 161535Z AUTO 00000KT 10SM CLR 01/M06 A3045 RMK AO2 T00091065
KMRN 161515Z AUTO 00000KT 10SM CLR 00/M06 A3045 RMK AO2 T10011059
KMRN 161455Z AUTO 00000KT 10SM CLR M01/M05 A3045 RMK AO2 T10091052
KMRN 161435Z AUTO 00000KT 10SM CLR M02/M05 A3045 RMK AO2 T10221054